Ferme-Neuve, Canada
Current Conditions -  °F | °C
As of 9:00 PM on Thursday 18 Dec 2014 (Local Time) from CYND Reporting Station
Light Snow Light Snow  
Wind Chill: -8°   Ceiling: 1900
Heat Index: -4°   Visibility: 15mi
Dew Point: -6°   Wind: 7mph
Humidity: 86%   Direction: 300°WNW
Pressure: 30"   Gusts: NA
Location:  46.7°N, 75.45°W
Report Text: CYND 190200Z 30006KT 15SM -SN OVC019 M04/M06 A3000 RMK SC8 LAST OBS/NEXT 191200 UTC SLP162
Loading
Personal Weather Stations






























Interactive Weather Map New forecast layout! Learn more

10-Day Weather Forecast

Advertisements
Track Severe Weather on mobile